Upper Sandusky, Ohio
Current Conditions -  °F | °C
As of 4:15 AM on Tuesday 21 Oct 2014 (Local Time) from KMNN Reporting Station
Haze Haze  
Wind Chill: 50°   Ceiling: 1300
Heat Index: 50°   Visibility: 4mi
Dew Point: 48°   Wind: 7mph
Humidity: 93%   Direction: 330°NNW
Pressure: 29.88"   Gusts: NA
Location:  40.83°N, 83.29°W
Report Text: KMNN 210815Z AUTO 33006KT 4SM BR FEW009 OVC013 10/09 A2988 RMK AO2 T01000089 TSNO
Loading
Personal Weather Stations






























Interactive Weather Map
Tropical Storm Tracking
New forecast layout! Learn more

10-Day Weather Forecast

Advertisements
Track Severe Weather on mobile